sensor_id;sensor_type;location;lat;lon;timestamp;temperature;humidity
30336;DHT22;17142;47.990;7.846;2023-04-30T00:00:02;11.80;99.90
30336;DHT22;17142;47.990;7.846;2023-04-30T00:02:32;11.70;99.90
30336;DHT22;17142;47.990;7.846;2023-04-30T00:04:57;11.60;99.90
30336;DHT22;17142;47.990;7.846;2023-04-30T00:07:23;11.50;99.90
30336;DHT22;17142;47.990;7.846;2023-04-30T00:09:49;11.40;99.90
30336;DHT22;17142;47.990;7.846;2023-04-30T00:12:18;11.30;99.90
30336;DHT22;17142;47.990;7.846;2023-04-30T00:14:46;11.20;99.90
30336;DHT22;17142;47.990;7.846;2023-04-30T00:17:16;11.20;99.90
30336;DHT22;17142;47.990;7.846;2023-04-30T00:19:42;11.10;99.90
30336;DHT22;17142;47.990;7.846;2023-04-30T00:22:07;11.10;99.90
30336;DHT22;17142;47.990;7.846;2023-04-30T00:24:36;11.00;99.90
30336;DHT22;17142;47.990;7.846;2023-04-30T00:27:01;10.90;99.90
30336;DHT22;17142;47.990;7.846;2023-04-30T00:29:27;10.80;99.90
30336;DHT22;17142;47.990;7.846;2023-04-30T00:31:52;10.80;99.90
30336;DHT22;17142;47.990;7.846;2023-04-30T00:34:20;10.80;99.90
30336;DHT22;17142;47.990;7.846;2023-04-30T00:36:48;10.80;99.90
30336;DHT22;17142;47.990;7.846;2023-04-30T00:39:14;10.70;99.90
30336;DHT22;17142;47.990;7.846;2023-04-30T00:41:40;10.70;99.90
30336;DHT22;17142;47.990;7.846;2023-04-30T00:44:11;10.70;99.90
30336;DHT22;17142;47.990;7.846;2023-04-30T00:46:37;10.60;99.90
30336;DHT22;17142;47.990;7.846;2023-04-30T00:49:03;10.40;99.90
30336;DHT22;17142;47.990;7.846;2023-04-30T00:51:31;10.30;99.90
30336;DHT22;17142;47.990;7.846;2023-04-30T00:54:02;10.20;99.90
30336;DHT22;17142;47.990;7.846;2023-04-30T00:56:28;10.10;99.90
30336;DHT22;17142;47.990;7.846;2023-04-30T00:58:57;9.90;99.90
30336;DHT22;17142;47.990;7.846;2023-04-30T01:01:27;9.80;99.90
30336;DHT22;17142;47.990;7.846;2023-04-30T01:03:56;9.70;99.90
30336;DHT22;17142;47.990;7.846;2023-04-30T01:06:22;9.60;99.90
30336;DHT22;17142;47.990;7.846;2023-04-30T01:08:48;9.50;99.90
30336;DHT22;17142;47.990;7.846;2023-04-30T01:11:24;9.40;99.90
30336;DHT22;17142;47.990;7.846;2023-04-30T01:14:11;9.40;99.90
30336;DHT22;17142;47.990;7.846;2023-04-30T01:16:46;9.40;99.90
30336;DHT22;17142;47.990;7.846;2023-04-30T01:19:35;9.30;99.90
30336;DHT22;17142;47.990;7.846;2023-04-30T01:22:03;9.30;99.90
30336;DHT22;17142;47.990;7.846;2023-04-30T01:30:17;9.10;99.90
30336;DHT22;17142;47.990;7.846;2023-04-30T01:32:43;9.10;99.90
30336;DHT22;17142;47.990;7.846;2023-04-30T01:35:09;9.10;99.90
30336;DHT22;17142;47.990;7.846;2023-04-30T01:48:45;9.00;99.90
30336;DHT22;17142;47.990;7.846;2023-04-30T01:51:40;9.00;99.90
30336;DHT22;17142;47.990;7.846;2023-04-30T01:54:33;9.00;99.90
30336;DHT22;17142;47.990;7.846;2023-04-30T01:57:22;9.10;99.90
30336;DHT22;17142;47.990;7.846;2023-04-30T01:59:52;9.10;99.90
30336;DHT22;17142;47.990;7.846;2023-04-30T02:02:18;9.20;99.90
30336;DHT22;17142;47.990;7.846;2023-04-30T02:04:46;9.30;99.90
30336;DHT22;17142;47.990;7.846;2023-04-30T02:07:19;9.50;99.90
30336;DHT22;17142;47.990;7.846;2023-04-30T02:09:46;9.60;99.90
30336;DHT22;17142;47.990;7.846;2023-04-30T02:12:14;9.70;99.90
30336;DHT22;17142;47.990;7.846;2023-04-30T02:14:40;10.00;99.90
30336;DHT22;17142;47.990;7.846;2023-04-30T02:17:05;10.10;99.90
30336;DHT22;17142;47.990;7.846;2023-04-30T02:19:33;10.20;99.90
30336;DHT22;17142;47.990;7.846;2023-04-30T02:21:59;10.30;99.90
30336;DHT22;17142;47.990;7.846;2023-04-30T02:24:25;10.40;99.90
30336;DHT22;17142;47.990;7.846;2023-04-30T02:26:50;10.60;99.90
30336;DHT22;17142;47.990;7.846;2023-04-30T02:29:16;10.70;99.90
30336;DHT22;17142;47.990;7.846;2023-04-30T02:31:41;10.90;99.90
30336;DHT22;17142;47.990;7.846;2023-04-30T02:34:07;11.00;99.90
30336;DHT22;17142;47.990;7.846;2023-04-30T02:36:35;11.10;99.90
30336;DHT22;17142;47.990;7.846;2023-04-30T02:39:08;11.20;99.90
30336;DHT22;17142;47.990;7.846;2023-04-30T02:41:46;11.30;99.90
30336;DHT22;17142;47.990;7.846;2023-04-30T02:44:23;11.30;99.90
30336;DHT22;17142;47.990;7.846;2023-04-30T02:46:52;11.40;99.90
30336;DHT22;17142;47.990;7.846;2023-04-30T02:49:17;11.40;99.90
30336;DHT22;17142;47.990;7.846;2023-04-30T02:51:54;11.40;99.90
30336;DHT22;17142;47.990;7.846;2023-04-30T02:54:22;11.40;99.90
30336;DHT22;17142;47.990;7.846;2023-04-30T02:56:52;11.40;99.90
30336;DHT22;17142;47.990;7.846;2023-04-30T02:59:17;11.40;99.90
30336;DHT22;17142;47.990;7.846;2023-04-30T03:01:49;11.40;99.90
30336;DHT22;17142;47.990;7.846;2023-04-30T03:04:39;11.40;99.90
30336;DHT22;17142;47.990;7.846;2023-04-30T03:07:25;11.40;99.90
30336;DHT22;17142;47.990;7.846;2023-04-30T03:10:09;11.40;99.90
30336;DHT22;17142;47.990;7.846;2023-04-30T03:12:53;11.40;99.90
30336;DHT22;17142;47.990;7.846;2023-04-30T03:15:38;11.40;99.90
30336;DHT22;17142;47.990;7.846;2023-04-30T03:18:15;11.40;99.90
30336;DHT22;17142;47.990;7.846;2023-04-30T03:20:46;11.40;99.90
30336;DHT22;17142;47.990;7.846;2023-04-30T03:23:36;11.40;99.90
30336;DHT22;17142;47.990;7.846;2023-04-30T03:30:13;11.50;99.90
30336;DHT22;17142;47.990;7.846;2023-04-30T03:35:54;11.60;99.90
30336;DHT22;17142;47.990;7.846;2023-04-30T03:38:26;11.50;99.90
30336;DHT22;17142;47.990;7.846;2023-04-30T03:41:02;11.50;99.90
30336;DHT22;17142;47.990;7.846;2023-04-30T03:43:28;11.50;99.90
30336;DHT22;17142;47.990;7.846;2023-04-30T03:46:02;11.50;99.90
30336;DHT22;17142;47.990;7.846;2023-04-30T03:48:27;11.50;99.90
30336;DHT22;17142;47.990;7.846;2023-04-30T03:51:03;11.50;99.90
30336;DHT22;17142;47.990;7.846;2023-04-30T03:53:35;11.50;99.90
30336;DHT22;17142;47.990;7.846;2023-04-30T03:56:07;11.50;99.90
30336;DHT22;17142;47.990;7.846;2023-04-30T03:58:38;11.60;99.90
30336;DHT22;17142;47.990;7.846;2023-04-30T04:01:04;11.50;99.90
30336;DHT22;17142;47.990;7.846;2023-04-30T04:03:36;11.50;99.90
30336;DHT22;17142;47.990;7.846;2023-04-30T04:06:03;11.50;99.90
30336;DHT22;17142;47.990;7.846;2023-04-30T04:08:29;11.40;99.90
30336;DHT22;17142;47.990;7.846;2023-04-30T04:11:04;11.40;99.90
30336;DHT22;17142;47.990;7.846;2023-04-30T04:13:39;11.30;99.90
30336;DHT22;17142;47.990;7.846;2023-04-30T04:16:05;11.30;99.90
30336;DHT22;17142;47.990;7.846;2023-04-30T04:18:38;11.20;99.90
30336;DHT22;17142;47.990;7.846;2023-04-30T04:21:13;11.20;99.90
30336;DHT22;17142;47.990;7.846;2023-04-30T04:23:47;11.20;99.90
30336;DHT22;17142;47.990;7.846;2023-04-30T04:26:12;11.20;99.90
30336;DHT22;17142;47.990;7.846;2023-04-30T04:28:45;11.10;99.90
30336;DHT22;17142;47.990;7.846;2023-04-30T04:31:12;11.20;99.90
30336;DHT22;17142;47.990;7.846;2023-04-30T04:33:40;11.20;99.90
30336;DHT22;17142;47.990;7.846;2023-04-30T04:36:11;11.20;99.90
30336;DHT22;17142;47.990;7.846;2023-04-30T04:38:45;11.30;99.90
30336;DHT22;17142;47.990;7.846;2023-04-30T04:41:11;11.30;99.90
30336;DHT22;17142;47.990;7.846;2023-04-30T04:43:39;11.40;99.90
30336;DHT22;17142;47.990;7.846;2023-04-30T04:46:05;11.50;99.90
30336;DHT22;17142;47.990;7.846;2023-04-30T04:48:33;11.60;99.90
30336;DHT22;17142;47.990;7.846;2023-04-30T04:51:01;11.90;99.90
30336;DHT22;17142;47.990;7.846;2023-04-30T04:53:29;12.20;99.90
30336;DHT22;17142;47.990;7.846;2023-04-30T04:56:04;12.30;99.90
30336;DHT22;17142;47.990;7.846;2023-04-30T04:58:36;12.40;99.90
30336;DHT22;17142;47.990;7.846;2023-04-30T05:01:08;12.50;99.90
30336;DHT22;17142;47.990;7.846;2023-04-30T05:03:45;12.60;99.90
30336;DHT22;17142;47.990;7.846;2023-04-30T05:06:16;12.70;99.90
30336;DHT22;17142;47.990;7.846;2023-04-30T05:08:42;12.80;99.90
30336;DHT22;17142;47.990;7.846;2023-04-30T05:11:07;12.90;99.90
30336;DHT22;17142;47.990;7.846;2023-04-30T05:13:39;13.00;99.90
30336;DHT22;17142;47.990;7.846;2023-04-30T05:16:15;13.10;99.90
30336;DHT22;17142;47.990;7.846;2023-04-30T05:18:48;13.20;99.90
30336;DHT22;17142;47.990;7.846;2023-04-30T05:21:16;13.30;99.90
30336;DHT22;17142;47.990;7.846;2023-04-30T05:23:43;13.40;99.90
30336;DHT22;17142;47.990;7.846;2023-04-30T05:26:19;13.50;99.90
30336;DHT22;17142;47.990;7.846;2023-04-30T05:28:50;13.50;99.90
30336;DHT22;17142;47.990;7.846;2023-04-30T05:31:22;13.60;99.90
30336;DHT22;17142;47.990;7.846;2023-04-30T05:33:57;13.70;99.90
30336;DHT22;17142;47.990;7.846;2023-04-30T05:36:29;13.80;99.90
30336;DHT22;17142;47.990;7.846;2023-04-30T05:39:03;14.00;99.90
30336;DHT22;17142;47.990;7.846;2023-04-30T05:41:35;14.20;99.90
30336;DHT22;17142;47.990;7.846;2023-04-30T05:44:11;14.50;99.90
30336;DHT22;17142;47.990;7.846;2023-04-30T05:46:40;14.60;99.90
30336;DHT22;17142;47.990;7.846;2023-04-30T05:49:15;14.70;99.90
30336;DHT22;17142;47.990;7.846;2023-04-30T05:51:49;14.90;99.90
30336;DHT22;17142;47.990;7.846;2023-04-30T05:54:23;15.10;99.90
30336;DHT22;17142;47.990;7.846;2023-04-30T05:56:57;15.40;99.90
30336;DHT22;17142;47.990;7.846;2023-04-30T05:59:23;16.00;99.90
30336;DHT22;17142;47.990;7.846;2023-04-30T06:01:48;16.60;98.80
30336;DHT22;17142;47.990;7.846;2023-04-30T06:04:14;17.00;97.40
30336;DHT22;17142;47.990;7.846;2023-04-30T06:06:46;17.60;96.00
30336;DHT22;17142;47.990;7.846;2023-04-30T06:09:11;18.70;94.00
30336;DHT22;17142;47.990;7.846;2023-04-30T06:11:37;19.50;90.10
30336;DHT22;17142;47.990;7.846;2023-04-30T06:14:09;19.80;82.40
30336;DHT22;17142;47.990;7.846;2023-04-30T06:16:41;19.90;81.10
30336;DHT22;17142;47.990;7.846;2023-04-30T06:19:13;20.10;80.10
30336;DHT22;17142;47.990;7.846;2023-04-30T06:21:44;20.30;75.80
30336;DHT22;17142;47.990;7.846;2023-04-30T06:24:16;20.40;73.00
30336;DHT22;17142;47.990;7.846;2023-04-30T06:26:48;20.30;72.00
30336;DHT22;17142;47.990;7.846;2023-04-30T06:29:23;20.10;71.80
30336;DHT22;17142;47.990;7.846;2023-04-30T06:31:49;19.70;72.10
30336;DHT22;17142;47.990;7.846;2023-04-30T06:34:18;19.00;72.70
30336;DHT22;17142;47.990;7.846;2023-04-30T06:36:48;18.30;75.40
30336;DHT22;17142;47.990;7.846;2023-04-30T06:39:15;18.00;78.00
30336;DHT22;17142;47.990;7.846;2023-04-30T06:41:40;18.10;77.80
30336;DHT22;17142;47.990;7.846;2023-04-30T06:44:07;18.10;77.80
30336;DHT22;17142;47.990;7.846;2023-04-30T06:46:52;18.00;78.70
30336;DHT22;17142;47.990;7.846;2023-04-30T06:49:18;18.10;78.60
30336;DHT22;17142;47.990;7.846;2023-04-30T06:51:43;18.20;77.70
30336;DHT22;17142;47.990;7.846;2023-04-30T06:54:21;18.20;76.50
30336;DHT22;17142;47.990;7.846;2023-04-30T06:56:53;18.70;75.50
30336;DHT22;17142;47.990;7.846;2023-04-30T06:59:52;19.40;74.10
30336;DHT22;17142;47.990;7.846;2023-04-30T07:02:25;20.00;72.80
30336;DHT22;17142;47.990;7.846;2023-04-30T07:04:51;21.00;69.70
30336;DHT22;17142;47.990;7.846;2023-04-30T07:07:20;21.60;65.60
30336;DHT22;17142;47.990;7.846;2023-04-30T07:09:57;21.80;64.20
30336;DHT22;17142;47.990;7.846;2023-04-30T07:12:41;21.70;62.80
30336;DHT22;17142;47.990;7.846;2023-04-30T07:15:10;21.40;63.70
30336;DHT22;17142;47.990;7.846;2023-04-30T07:18:25;21.30;63.20
30336;DHT22;17142;47.990;7.846;2023-04-30T07:20:58;21.30;62.90
30336;DHT22;17142;47.990;7.846;2023-04-30T07:28:34;21.40;61.60
30336;DHT22;17142;47.990;7.846;2023-04-30T07:31:00;21.10;61.90
30336;DHT22;17142;47.990;7.846;2023-04-30T07:33:26;20.90;61.60
30336;DHT22;17142;47.990;7.846;2023-04-30T07:35:54;20.90;61.80
30336;DHT22;17142;47.990;7.846;2023-04-30T07:38:22;20.90;62.10
30336;DHT22;17142;47.990;7.846;2023-04-30T07:40:48;21.10;61.80
30336;DHT22;17142;47.990;7.846;2023-04-30T07:43:13;21.10;61.40
30336;DHT22;17142;47.990;7.846;2023-04-30T07:45:39;21.30;61.80
30336;DHT22;17142;47.990;7.846;2023-04-30T07:48:07;21.40;60.10
30336;DHT22;17142;47.990;7.846;2023-04-30T07:50:33;21.40;59.50
30336;DHT22;17142;47.990;7.846;2023-04-30T07:52:59;21.10;60.30
30336;DHT22;17142;47.990;7.846;2023-04-30T07:55:27;20.90;60.80
30336;DHT22;17142;47.990;7.846;2023-04-30T07:57:56;20.60;62.00
30336;DHT22;17142;47.990;7.846;2023-04-30T08:00:21;20.30;62.90
30336;DHT22;17142;47.990;7.846;2023-04-30T08:02:47;20.10;62.50
30336;DHT22;17142;47.990;7.846;2023-04-30T08:05:14;20.10;63.20
30336;DHT22;17142;47.990;7.846;2023-04-30T08:07:42;20.30;63.70
30336;DHT22;17142;47.990;7.846;2023-04-30T08:10:09;20.40;62.80
30336;DHT22;17142;47.990;7.846;2023-04-30T08:12:37;20.20;61.70
30336;DHT22;17142;47.990;7.846;2023-04-30T08:15:06;20.10;62.40
30336;DHT22;17142;47.990;7.846;2023-04-30T08:17:32;19.90;64.20
30336;DHT22;17142;47.990;7.846;2023-04-30T08:20:02;20.20;64.30
30336;DHT22;17142;47.990;7.846;2023-04-30T08:22:29;20.60;62.40
30336;DHT22;17142;47.990;7.846;2023-04-30T08:24:54;20.60;63.00
30336;DHT22;17142;47.990;7.846;2023-04-30T08:27:23;20.70;62.80
30336;DHT22;17142;47.990;7.846;2023-04-30T08:29:48;20.70;60.50
30336;DHT22;17142;47.990;7.846;2023-04-30T08:32:14;20.20;61.10
30336;DHT22;17142;47.990;7.846;2023-04-30T08:34:40;20.00;62.80
30336;DHT22;17142;47.990;7.846;2023-04-30T08:37:08;20.00;63.20
30336;DHT22;17142;47.990;7.846;2023-04-30T08:39:33;20.20;62.40
30336;DHT22;17142;47.990;7.846;2023-04-30T08:42:01;20.40;61.80
30336;DHT22;17142;47.990;7.846;2023-04-30T08:44:31;20.40;61.50
30336;DHT22;17142;47.990;7.846;2023-04-30T08:46:57;20.30;61.70
30336;DHT22;17142;47.990;7.846;2023-04-30T08:49:24;20.40;61.60
30336;DHT22;17142;47.990;7.846;2023-04-30T08:51:50;20.60;61.40
30336;DHT22;17142;47.990;7.846;2023-04-30T08:54:17;20.70;60.90
30336;DHT22;17142;47.990;7.846;2023-04-30T08:56:46;20.80;60.90
30336;DHT22;17142;47.990;7.846;2023-04-30T08:59:12;20.90;61.30
30336;DHT22;17142;47.990;7.846;2023-04-30T09:01:38;21.10;60.30
30336;DHT22;17142;47.990;7.846;2023-04-30T09:04:05;21.10;60.80
30336;DHT22;17142;47.990;7.846;2023-04-30T09:06:30;21.10;60.10
30336;DHT22;17142;47.990;7.846;2023-04-30T09:09:07;21.10;59.60
30336;DHT22;17142;47.990;7.846;2023-04-30T09:11:35;21.00;59.70
30336;DHT22;17142;47.990;7.846;2023-04-30T09:14:01;20.80;59.90
30336;DHT22;17142;47.990;7.846;2023-04-30T09:16:29;20.80;60.90
30336;DHT22;17142;47.990;7.846;2023-04-30T09:19:29;20.90;60.70
30336;DHT22;17142;47.990;7.846;2023-04-30T09:21:56;20.90;60.10
30336;DHT22;17142;47.990;7.846;2023-04-30T09:24:24;21.10;59.20
30336;DHT22;17142;47.990;7.846;2023-04-30T09:26:50;20.80;59.00
30336;DHT22;17142;47.990;7.846;2023-04-30T09:29:18;20.70;60.20
30336;DHT22;17142;47.990;7.846;2023-04-30T09:31:49;20.90;60.00
30336;DHT22;17142;47.990;7.846;2023-04-30T09:34:15;21.10;59.30
30336;DHT22;17142;47.990;7.846;2023-04-30T09:36:53;21.10;58.90
30336;DHT22;17142;47.990;7.846;2023-04-30T09:39:22;21.20;59.40
30336;DHT22;17142;47.990;7.846;2023-04-30T09:41:50;21.50;59.00
30336;DHT22;17142;47.990;7.846;2023-04-30T09:44:34;21.60;58.00
30336;DHT22;17142;47.990;7.846;2023-04-30T09:47:00;21.40;58.10
30336;DHT22;17142;47.990;7.846;2023-04-30T09:49:27;21.20;58.50
30336;DHT22;17142;47.990;7.846;2023-04-30T09:51:59;21.40;58.70
30336;DHT22;17142;47.990;7.846;2023-04-30T09:54:29;21.50;58.10
30336;DHT22;17142;47.990;7.846;2023-04-30T09:57:01;21.60;57.10
30336;DHT22;17142;47.990;7.846;2023-04-30T09:59:31;21.60;57.80
30336;DHT22;17142;47.990;7.846;2023-04-30T10:02:01;21.60;57.90
30336;DHT22;17142;47.990;7.846;2023-04-30T10:07:01;21.60;57.30
30336;DHT22;17142;47.990;7.846;2023-04-30T10:09:33;21.30;56.50
30336;DHT22;17142;47.990;7.846;2023-04-30T10:12:02;21.20;57.30
30336;DHT22;17142;47.990;7.846;2023-04-30T10:14:30;21.40;58.20
30336;DHT22;17142;47.990;7.846;2023-04-30T10:17:10;21.80;57.50
30336;DHT22;17142;47.990;7.846;2023-04-30T10:19:38;22.00;56.40
30336;DHT22;17142;47.990;7.846;2023-04-30T10:22:08;21.90;56.40
30336;DHT22;17142;47.990;7.846;2023-04-30T10:24:35;21.90;56.30
30336;DHT22;17142;47.990;7.846;2023-04-30T10:27:02;21.90;56.70
30336;DHT22;17142;47.990;7.846;2023-04-30T10:29:28;21.70;56.30
30336;DHT22;17142;47.990;7.846;2023-04-30T10:31:54;21.60;57.30
30336;DHT22;17142;47.990;7.846;2023-04-30T10:34:47;21.50;56.40
30336;DHT22;17142;47.990;7.846;2023-04-30T10:37:23;21.50;56.50
30336;DHT22;17142;47.990;7.846;2023-04-30T10:39:56;21.30;56.70
30336;DHT22;17142;47.990;7.846;2023-04-30T10:42:21;21.30;57.40
30336;DHT22;17142;47.990;7.846;2023-04-30T10:44:47;21.10;58.30
30336;DHT22;17142;47.990;7.846;2023-04-30T10:47:14;20.90;59.00
30336;DHT22;17142;47.990;7.846;2023-04-30T10:49:45;21.00;58.60
30336;DHT22;17142;47.990;7.846;2023-04-30T10:52:13;21.20;57.60
30336;DHT22;17142;47.990;7.846;2023-04-30T10:54:39;21.50;57.30
30336;DHT22;17142;47.990;7.846;2023-04-30T10:57:13;21.70;58.10
30336;DHT22;17142;47.990;7.846;2023-04-30T10:59:52;21.80;56.70
30336;DHT22;17142;47.990;7.846;2023-04-30T11:02:18;21.70;57.10
30336;DHT22;17142;47.990;7.846;2023-04-30T11:07:34;21.80;56.60
30336;DHT22;17142;47.990;7.846;2023-04-30T11:10:02;21.60;55.90
30336;DHT22;17142;47.990;7.846;2023-04-30T11:12:28;21.40;56.90
30336;DHT22;17142;47.990;7.846;2023-04-30T11:15:10;21.40;56.20
30336;DHT22;17142;47.990;7.846;2023-04-30T11:17:37;21.40;56.40
30336;DHT22;17142;47.990;7.846;2023-04-30T11:20:03;21.40;55.70
30336;DHT22;17142;47.990;7.846;2023-04-30T11:22:31;21.40;56.00
30336;DHT22;17142;47.990;7.846;2023-04-30T11:27:34;21.60;55.20
30336;DHT22;17142;47.990;7.846;2023-04-30T11:30:02;21.50;55.60
30336;DHT22;17142;47.990;7.846;2023-04-30T11:32:34;21.60;55.70
30336;DHT22;17142;47.990;7.846;2023-04-30T11:35:04;21.50;55.30
30336;DHT22;17142;47.990;7.846;2023-04-30T11:37:34;21.50;56.00
30336;DHT22;17142;47.990;7.846;2023-04-30T11:40:06;21.50;55.30
30336;DHT22;17142;47.990;7.846;2023-04-30T11:42:33;21.50;55.30
30336;DHT22;17142;47.990;7.846;2023-04-30T11:45:09;21.60;55.50
30336;DHT22;17142;47.990;7.846;2023-04-30T11:47:44;21.50;55.00
30336;DHT22;17142;47.990;7.846;2023-04-30T11:50:15;21.30;54.30
30336;DHT22;17142;47.990;7.846;2023-04-30T11:52:47;21.30;54.50
30336;DHT22;17142;47.990;7.846;2023-04-30T11:55:16;21.50;54.80
30336;DHT22;17142;47.990;7.846;2023-04-30T11:57:43;21.70;54.40
30336;DHT22;17142;47.990;7.846;2023-04-30T12:00:17;21.80;55.10
30336;DHT22;17142;47.990;7.846;2023-04-30T12:02:45;21.70;55.30
30336;DHT22;17142;47.990;7.846;2023-04-30T12:05:14;21.40;55.80
30336;DHT22;17142;47.990;7.846;2023-04-30T12:07:45;21.10;56.40
30336;DHT22;17142;47.990;7.846;2023-04-30T12:10:11;20.80;56.70
30336;DHT22;17142;47.990;7.846;2023-04-30T12:12:42;20.60;57.40
30336;DHT22;17142;47.990;7.846;2023-04-30T12:15:12;20.60;57.50
30336;DHT22;17142;47.990;7.846;2023-04-30T12:17:38;20.60;58.00
30336;DHT22;17142;47.990;7.846;2023-04-30T12:20:03;20.80;57.40
30336;DHT22;17142;47.990;7.846;2023-04-30T12:22:32;20.80;57.40
30336;DHT22;17142;47.990;7.846;2023-04-30T12:24:58;20.90;57.70
30336;DHT22;17142;47.990;7.846;2023-04-30T12:27:25;21.00;58.30
30336;DHT22;17142;47.990;7.846;2023-04-30T12:29:52;21.00;57.30
30336;DHT22;17142;47.990;7.846;2023-04-30T12:32:20;21.10;57.90
30336;DHT22;17142;47.990;7.846;2023-04-30T12:34:46;21.10;57.60
30336;DHT22;17142;47.990;7.846;2023-04-30T12:37:16;21.10;57.80
30336;DHT22;17142;47.990;7.846;2023-04-30T12:39:42;21.20;57.00
30336;DHT22;17142;47.990;7.846;2023-04-30T12:42:10;21.10;56.90
30336;DHT22;17142;47.990;7.846;2023-04-30T12:44:42;21.20;56.80
30336;DHT22;17142;47.990;7.846;2023-04-30T12:47:11;21.10;56.50
30336;DHT22;17142;47.990;7.846;2023-04-30T12:49:39;21.00;56.40
30336;DHT22;17142;47.990;7.846;2023-04-30T12:52:08;21.00;56.60
30336;DHT22;17142;47.990;7.846;2023-04-30T12:54:35;21.10;57.10
30336;DHT22;17142;47.990;7.846;2023-04-30T12:57:02;21.10;57.10
30336;DHT22;17142;47.990;7.846;2023-04-30T12:59:33;21.10;57.40
30336;DHT22;17142;47.990;7.846;2023-04-30T13:02:10;21.20;56.90
30336;DHT22;17142;47.990;7.846;2023-04-30T13:04:38;21.10;56.70
30336;DHT22;17142;47.990;7.846;2023-04-30T13:07:04;21.10;57.10
30336;DHT22;17142;47.990;7.846;2023-04-30T13:09:32;21.10;57.60
30336;DHT22;17142;47.990;7.846;2023-04-30T13:12:01;20.90;57.40
30336;DHT22;17142;47.990;7.846;2023-04-30T13:14:27;20.80;57.80
30336;DHT22;17142;47.990;7.846;2023-04-30T13:16:53;20.50;57.80
30336;DHT22;17142;47.990;7.846;2023-04-30T13:19:21;20.30;58.70
30336;DHT22;17142;47.990;7.846;2023-04-30T13:21:49;20.10;59.20
30336;DHT22;17142;47.990;7.846;2023-04-30T13:24:15;20.10;59.40
30336;DHT22;17142;47.990;7.846;2023-04-30T13:26:42;20.10;58.80
30336;DHT22;17142;47.990;7.846;2023-04-30T13:29:08;20.10;58.30
30336;DHT22;17142;47.990;7.846;2023-04-30T13:31:36;20.10;58.40
30336;DHT22;17142;47.990;7.846;2023-04-30T13:34:02;20.20;58.00
30336;DHT22;17142;47.990;7.846;2023-04-30T13:36:27;20.20;58.00
30336;DHT22;17142;47.990;7.846;2023-04-30T13:38:55;20.10;58.50
30336;DHT22;17142;47.990;7.846;2023-04-30T13:41:21;20.10;58.50
30336;DHT22;17142;47.990;7.846;2023-04-30T13:43:48;20.10;58.90
30336;DHT22;17142;47.990;7.846;2023-04-30T13:46:13;20.20;58.50
30336;DHT22;17142;47.990;7.846;2023-04-30T13:48:39;20.30;58.30
30336;DHT22;17142;47.990;7.846;2023-04-30T13:51:06;20.40;58.00
30336;DHT22;17142;47.990;7.846;2023-04-30T13:53:31;20.30;58.20
30336;DHT22;17142;47.990;7.846;2023-04-30T13:55:57;20.30;58.10
30336;DHT22;17142;47.990;7.846;2023-04-30T13:58:24;20.20;58.10
30336;DHT22;17142;47.990;7.846;2023-04-30T14:00:50;19.90;58.60
30336;DHT22;17142;47.990;7.846;2023-04-30T14:03:17;20.00;58.70
30336;DHT22;17142;47.990;7.846;2023-04-30T14:05:43;20.10;58.60
30336;DHT22;17142;47.990;7.846;2023-04-30T14:08:09;20.30;58.90
30336;DHT22;17142;47.990;7.846;2023-04-30T14:10:34;20.50;58.40
30336;DHT22;17142;47.990;7.846;2023-04-30T14:13:00;20.60;57.80
30336;DHT22;17142;47.990;7.846;2023-04-30T14:15:31;20.60;57.10
30336;DHT22;17142;47.990;7.846;2023-04-30T14:17:57;20.60;57.40
30336;DHT22;17142;47.990;7.846;2023-04-30T14:20:23;20.70;57.50
30336;DHT22;17142;47.990;7.846;2023-04-30T14:22:49;20.80;57.20
30336;DHT22;17142;47.990;7.846;2023-04-30T14:25:17;20.80;57.10
30336;DHT22;17142;47.990;7.846;2023-04-30T14:27:43;20.80;56.80
30336;DHT22;17142;47.990;7.846;2023-04-30T14:30:09;20.70;57.20
30336;DHT22;17142;47.990;7.846;2023-04-30T14:32:37;20.90;57.20
30336;DHT22;17142;47.990;7.846;2023-04-30T14:35:03;20.90;56.60
30336;DHT22;17142;47.990;7.846;2023-04-30T14:37:31;20.80;56.70
30336;DHT22;17142;47.990;7.846;2023-04-30T14:39:57;20.70;56.70
30336;DHT22;17142;47.990;7.846;2023-04-30T14:42:26;20.60;57.60
30336;DHT22;17142;47.990;7.846;2023-04-30T14:44:54;20.80;56.80
30336;DHT22;17142;47.990;7.846;2023-04-30T14:47:20;20.80;56.90
30336;DHT22;17142;47.990;7.846;2023-04-30T14:49:51;20.90;57.10
30336;DHT22;17142;47.990;7.846;2023-04-30T14:52:20;20.80;56.80
30336;DHT22;17142;47.990;7.846;2023-04-30T14:54:46;20.60;57.10
30336;DHT22;17142;47.990;7.846;2023-04-30T14:57:11;20.60;57.50
30336;DHT22;17142;47.990;7.846;2023-04-30T14:59:41;20.50;57.90
30336;DHT22;17142;47.990;7.846;2023-04-30T15:02:07;20.50;57.40
30336;DHT22;17142;47.990;7.846;2023-04-30T15:04:33;20.60;57.50
30336;DHT22;17142;47.990;7.846;2023-04-30T15:07:01;20.60;57.60
30336;DHT22;17142;47.990;7.846;2023-04-30T15:09:27;20.70;57.40
30336;DHT22;17142;47.990;7.846;2023-04-30T15:11:53;20.80;57.20
30336;DHT22;17142;47.990;7.846;2023-04-30T15:14:18;20.80;57.10
30336;DHT22;17142;47.990;7.846;2023-04-30T15:16:45;20.90;57.00
30336;DHT22;17142;47.990;7.846;2023-04-30T15:19:11;21.00;56.90
30336;DHT22;17142;47.990;7.846;2023-04-30T15:21:36;21.00;56.30
30336;DHT22;17142;47.990;7.846;2023-04-30T15:24:02;20.90;56.60
30336;DHT22;17142;47.990;7.846;2023-04-30T15:26:28;20.90;56.40
30336;DHT22;17142;47.990;7.846;2023-04-30T15:28:54;20.90;55.70
30336;DHT22;17142;47.990;7.846;2023-04-30T15:31:21;20.80;56.30
30336;DHT22;17142;47.990;7.846;2023-04-30T15:33:46;20.70;55.60
30336;DHT22;17142;47.990;7.846;2023-04-30T15:36:12;20.70;56.10
30336;DHT22;17142;47.990;7.846;2023-04-30T15:38:38;20.70;56.40
30336;DHT22;17142;47.990;7.846;2023-04-30T15:41:03;20.90;56.20
30336;DHT22;17142;47.990;7.846;2023-04-30T15:43:29;21.10;55.70
30336;DHT22;17142;47.990;7.846;2023-04-30T15:45:59;21.20;55.00
30336;DHT22;17142;47.990;7.846;2023-04-30T15:48:24;21.20;54.90
30336;DHT22;17142;47.990;7.846;2023-04-30T15:50:52;21.10;55.00
30336;DHT22;17142;47.990;7.846;2023-04-30T15:53:20;21.10;54.80
30336;DHT22;17142;47.990;7.846;2023-04-30T15:55:47;21.10;54.90
30336;DHT22;17142;47.990;7.846;2023-04-30T15:58:13;21.00;54.60
30336;DHT22;17142;47.990;7.846;2023-04-30T16:00:40;21.10;54.30
30336;DHT22;17142;47.990;7.846;2023-04-30T16:03:06;21.10;54.80
30336;DHT22;17142;47.990;7.846;2023-04-30T16:05:36;21.10;54.70
30336;DHT22;17142;47.990;7.846;2023-04-30T16:08:07;21.10;54.20
30336;DHT22;17142;47.990;7.846;2023-04-30T16:10:34;20.90;54.60
30336;DHT22;17142;47.990;7.846;2023-04-30T16:13:00;20.90;54.90
30336;DHT22;17142;47.990;7.846;2023-04-30T16:15:28;20.80;55.30
30336;DHT22;17142;47.990;7.846;2023-04-30T16:17:57;20.70;55.40
30336;DHT22;17142;47.990;7.846;2023-04-30T16:20:23;20.70;55.10
30336;DHT22;17142;47.990;7.846;2023-04-30T16:22:49;20.50;55.30